McChord Air Force Base
KTCM : rendu visible

Aérodrome :











RETROUVEZ-NOUS SUR...

 
LOGIN :

S'inscrire | Disclaimer

   EN    FR    IT 

 









Légende :    VFR   VFR Marginal   IFR   IFR Intensif   IFR Très Intensif
Visi : 
Plafond : 
>= 8 km
>= 3000ft
5 à 8 km
1000 à 3000 ft
1500m à 5 km
500 à 1000 ft
800 à 1500m
200 à 500 ft
< 800m
< 200 ft
Symboles :   Orages  Brouillard  Fortes neiges  Fortes précipitations  Vent > 20 kt






- Altitude de l'aérodrome : 322 ft


KTCM - McChord Air Force Base

METARs EXPIRÉS :
  • 091458Z 00000KT 6SM BR OVC003 06/06 A3025 RMK AO2A SLP249 53004 RVRNO $

TAF TAF KTCM
Valide du 09 à 13h jusqu'au 10 à 19h UTC


091300Z 0913/1019 VRB06KT 6000 BR BKN003 OVC020 QNH3019INS
TEMPO 0913/0917 0800 FG VV002
BECMG 0923/0924 VRB06KT 9999 NSW BKN020 QNH3014INS
BECMG 1004/1005 VRB06KT 9999 SCT200 QNH3016INS TX09/0923Z TN05/1005Z



MET'MAP, la Météo Aéronautique d'un coup d'oeil ! - Copyright ORBIFLY Décembre 2007 - Disclaimer

ORBIFLY MET'MAP TEAM :

Programmation & Développement : Alexandra Zaïnal
Sur une idée originale de : Baudouin d'Aumeries
Assistance à la programmation : Marc-Olivier Méhu
Soutien technique & logistique : Manuel Goepfert

Contact : metmap@orbifly.com




SOURCES & CREDITS :

   NOAA       Earth
Advisory